createdAt,value
2022-12-22T00:02:10.832Z,100122.00
2022-12-22T00:05:02.033Z,100118.00
2022-12-22T00:07:47.396Z,100116.00
2022-12-22T00:10:33.235Z,100117.00
2022-12-22T00:13:19.074Z,100111.00
2022-12-22T00:16:05.096Z,100110.00
2022-12-22T00:18:53.564Z,100112.00
2022-12-22T00:21:39.383Z,100101.00
2022-12-22T00:24:25.070Z,100084.00
2022-12-22T00:27:11.054Z,100081.00
2022-12-22T00:30:01.736Z,100078.00
2022-12-22T00:32:54.210Z,100083.00
2022-12-22T00:35:44.160Z,100088.00
2022-12-22T00:38:35.693Z,100084.00
2022-12-22T00:41:22.382Z,100075.00
2022-12-22T00:44:08.701Z,100070.00
2022-12-22T00:47:00.128Z,100059.00
2022-12-22T00:49:48.395Z,100052.00
2022-12-22T00:52:36.752Z,100047.00
2022-12-22T00:55:38.590Z,100037.00
2022-12-22T00:58:34.025Z,100041.00
2022-12-22T01:01:20.034Z,100030.00
2022-12-22T01:04:05.601Z,100027.00
2022-12-22T01:06:55.005Z,100030.00
2022-12-22T01:09:41.898Z,100018.00
2022-12-22T01:12:44.066Z,100010.00
2022-12-22T01:15:34.419Z,100017.00
2022-12-22T01:18:20.197Z,100007.00
2022-12-22T01:21:05.926Z,100004.00
2022-12-22T01:23:52.092Z,100008.00
2022-12-22T01:26:38.207Z,100003.00
2022-12-22T01:29:23.881Z,99987.00
2022-12-22T01:32:09.899Z,99985.00
2022-12-22T01:34:55.715Z,99981.00
2022-12-22T01:37:41.841Z,99981.00
2022-12-22T01:40:38.552Z,99978.00
2022-12-22T01:43:45.849Z,99968.00
2022-12-22T01:47:02.604Z,99975.00
2022-12-22T01:50:00.939Z,99973.00
2022-12-22T01:52:53.905Z,99974.00
2022-12-22T01:55:43.370Z,99967.00
2022-12-22T01:58:57.889Z,99968.00
2022-12-22T02:01:44.026Z,99961.00
2022-12-22T02:04:30.011Z,99936.00
2022-12-22T02:07:30.523Z,99950.00
2022-12-22T02:10:54.386Z,99942.00
2022-12-22T02:14:04.592Z,99940.00
2022-12-22T02:17:03.559Z,99935.00
2022-12-22T02:20:29.008Z,99931.00
2022-12-22T02:23:57.137Z,99915.00
2022-12-22T02:26:55.251Z,99906.00
2022-12-22T02:29:56.076Z,99906.00
2022-12-22T02:32:45.638Z,99901.00
2022-12-22T02:35:35.565Z,99900.00
2022-12-22T02:39:12.412Z,99900.00
2022-12-22T02:42:33.331Z,99897.00
2022-12-22T02:45:49.908Z,99882.00
2022-12-22T02:48:50.939Z,99870.00
2022-12-22T02:51:44.623Z,99866.00
2022-12-22T02:54:35.383Z,99864.00
2022-12-22T02:57:27.467Z,99865.00
2022-12-22T03:00:13.574Z,99858.00
2022-12-22T03:02:59.913Z,99868.00
2022-12-22T03:05:46.109Z,99869.00
2022-12-22T03:08:31.995Z,99857.00
2022-12-22T03:11:17.966Z,99862.00
2022-12-22T03:14:03.884Z,99854.00
2022-12-22T03:16:49.837Z,99856.00
2022-12-22T03:19:35.610Z,99843.00
2022-12-22T03:22:21.594Z,99834.00
2022-12-22T03:25:07.259Z,99830.00
2022-12-22T03:27:34.376Z,99827.00
2022-12-22T03:30:01.576Z,99827.00
2022-12-22T03:32:28.679Z,99823.00
2022-12-22T03:34:55.857Z,99824.00
2022-12-22T03:37:23.114Z,99827.00
2022-12-22T03:39:50.395Z,99822.00
2022-12-22T03:42:36.277Z,99811.00
2022-12-22T03:45:22.371Z,99810.00
2022-12-22T03:47:49.378Z,99803.00
2022-12-22T03:50:16.615Z,99800.00
2022-12-22T03:52:43.799Z,99803.00
2022-12-22T03:55:10.959Z,99805.00
2022-12-22T03:57:38.085Z,99795.00
2022-12-22T04:00:08.275Z,99798.00
2022-12-22T04:02:35.566Z,99803.00
2022-12-22T04:05:03.027Z,99802.00
2022-12-22T04:07:30.297Z,99789.00
2022-12-22T04:10:15.888Z,99800.00
2022-12-22T04:12:55.057Z,99786.00
2022-12-22T04:15:33.071Z,99786.00
2022-12-22T04:18:00.481Z,99800.00
2022-12-22T04:20:28.838Z,99799.00
2022-12-22T04:22:57.239Z,99797.00
2022-12-22T04:25:25.639Z,99788.00
2022-12-22T04:27:53.183Z,99784.00
2022-12-22T04:30:20.695Z,99781.00
2022-12-22T04:32:47.930Z,99787.00
2022-12-22T04:35:15.064Z,99786.00
2022-12-22T04:37:42.251Z,99782.00
2022-12-22T04:40:09.727Z,99786.00
2022-12-22T04:42:36.882Z,99777.00
2022-12-22T04:45:04.549Z,99776.00
2022-12-22T04:47:31.799Z,99787.00
2022-12-22T04:49:59.770Z,99780.00
2022-12-22T04:52:27.206Z,99776.00
2022-12-22T04:54:54.387Z,99775.00
2022-12-22T04:57:21.709Z,99776.00
2022-12-22T04:59:48.944Z,99772.00
2022-12-22T05:02:16.184Z,99778.00
2022-12-22T05:04:43.644Z,99783.00
2022-12-22T05:07:10.747Z,99774.00
2022-12-22T05:09:37.904Z,99771.00
2022-12-22T05:12:25.577Z,99782.00
2022-12-22T05:14:53.276Z,99782.00
2022-12-22T05:17:20.693Z,99780.00
2022-12-22T05:19:48.060Z,99791.00
2022-12-22T05:22:15.227Z,99782.00
2022-12-22T05:24:42.347Z,99778.00
2022-12-22T05:27:14.367Z,99779.00
2022-12-22T05:29:41.575Z,99767.00
2022-12-22T05:32:08.767Z,99775.00
2022-12-22T05:34:36.026Z,99777.00
2022-12-22T05:37:03.262Z,99776.00
2022-12-22T05:39:30.338Z,99762.00
2022-12-22T05:41:57.406Z,99773.00
2022-12-22T05:44:24.541Z,99775.00
2022-12-22T05:46:52.533Z,99776.00
2022-12-22T05:49:21.027Z,99778.00
2022-12-22T05:51:48.710Z,99779.00
2022-12-22T05:54:16.164Z,99783.00
2022-12-22T05:56:46.173Z,99779.00
2022-12-22T05:59:13.533Z,99791.00
2022-12-22T06:01:40.729Z,99783.00
2022-12-22T06:04:08.031Z,99787.00
2022-12-22T06:06:35.365Z,99788.00
2022-12-22T06:09:02.722Z,99792.00
2022-12-22T06:11:29.896Z,99794.00
2022-12-22T06:13:57.018Z,99788.00
2022-12-22T06:16:24.447Z,99789.00
2022-12-22T06:18:51.834Z,99797.00
2022-12-22T06:21:19.000Z,99803.00
2022-12-22T06:23:46.269Z,99809.00
2022-12-22T06:26:13.715Z,99808.00
2022-12-22T06:28:41.031Z,99831.00
2022-12-22T06:31:08.250Z,99836.00
2022-12-22T06:33:35.474Z,99827.00
2022-12-22T06:36:09.254Z,99827.00
2022-12-22T06:38:36.441Z,99819.00
2022-12-22T06:41:06.223Z,99824.00
2022-12-22T06:43:36.114Z,99841.00
2022-12-22T06:46:03.731Z,99859.00
2022-12-22T06:48:30.871Z,99859.00
2022-12-22T06:50:59.932Z,99874.00
2022-12-22T06:53:27.584Z,99881.00
2022-12-22T06:55:54.831Z,99901.00
2022-12-22T06:59:31.194Z,99901.00
2022-12-22T07:01:59.531Z,99898.00
2022-12-22T07:04:29.925Z,99892.00
2022-12-22T07:06:57.372Z,99901.00
2022-12-22T07:09:29.148Z,99922.00
2022-12-22T07:11:56.354Z,99923.00
2022-12-22T07:14:29.661Z,99925.00
2022-12-22T07:16:56.957Z,99919.00
2022-12-22T07:19:32.581Z,99941.00
2022-12-22T07:21:59.804Z,99928.00
2022-12-22T07:24:27.382Z,99926.00
2022-12-22T07:26:54.745Z,99946.00
2022-12-22T07:29:22.427Z,99949.00
2022-12-22T07:31:49.778Z,99953.00
2022-12-22T07:34:16.965Z,99950.00
2022-12-22T07:36:44.194Z,99954.00
2022-12-22T07:39:13.032Z,99967.00
2022-12-22T07:41:58.967Z,99965.00
2022-12-22T07:44:26.483Z,99968.00
2022-12-22T07:46:56.310Z,99964.00
2022-12-22T07:49:42.050Z,99994.00
2022-12-22T07:52:09.969Z,99986.00
2022-12-22T07:54:41.822Z,99987.00
2022-12-22T07:57:09.722Z,99982.00
2022-12-22T07:59:36.949Z,99997.00
2022-12-22T08:02:10.589Z,99999.00
2022-12-22T08:04:38.040Z,100015.00
2022-12-22T08:07:07.898Z,100018.00
2022-12-22T08:09:37.500Z,100016.00
2022-12-22T08:12:05.269Z,100027.00
2022-12-22T08:14:32.398Z,100031.00
2022-12-22T08:16:59.558Z,100032.00
2022-12-22T08:19:26.951Z,100040.00
2022-12-22T08:21:54.459Z,100032.00
2022-12-22T08:24:22.387Z,100040.00
2022-12-22T08:26:55.666Z,100039.00
2022-12-22T08:29:32.626Z,100044.00
2022-12-22T08:32:01.696Z,100069.00
2022-12-22T08:34:29.493Z,100064.00
2022-12-22T08:37:01.234Z,100069.00
2022-12-22T08:39:33.090Z,100093.00
2022-12-22T08:42:04.033Z,100089.00
2022-12-22T08:44:31.586Z,100083.00
2022-12-22T08:47:00.271Z,100101.00
2022-12-22T08:49:28.207Z,100089.00
2022-12-22T08:51:55.705Z,100106.00
2022-12-22T08:54:26.396Z,100107.00
2022-12-22T08:56:53.713Z,100114.00
2022-12-22T08:59:21.027Z,100122.00
2022-12-22T09:01:51.171Z,100130.00
2022-12-22T09:04:24.991Z,100123.00
2022-12-22T09:06:53.872Z,100121.00
2022-12-22T09:09:21.709Z,100135.00
2022-12-22T09:11:49.272Z,100131.00
2022-12-22T09:14:17.057Z,100139.00
2022-12-22T09:16:45.516Z,100141.00
2022-12-22T09:19:12.857Z,100161.00
2022-12-22T09:21:40.153Z,100162.00
2022-12-22T09:24:08.029Z,100181.00
2022-12-22T09:26:37.931Z,100192.00
2022-12-22T09:29:05.852Z,100189.00
2022-12-22T09:31:34.281Z,100202.00
2022-12-22T09:38:11.134Z,100208.00
2022-12-22T09:40:38.818Z,100205.00
2022-12-22T09:43:06.463Z,100208.00
2022-12-22T09:45:34.295Z,100212.00
2022-12-22T09:48:02.465Z,100204.00
2022-12-22T09:50:35.508Z,100207.00
2022-12-22T09:53:06.695Z,100231.00
2022-12-22T09:55:50.230Z,100211.00
2022-12-22T09:58:28.949Z,100217.00
2022-12-22T10:01:39.215Z,100228.00
2022-12-22T10:04:49.610Z,100243.00
2022-12-22T10:07:40.358Z,100239.00
2022-12-22T10:10:25.643Z,100241.00
2022-12-22T10:12:57.667Z,100238.00
2022-12-22T10:15:26.226Z,100242.00
2022-12-22T10:18:10.403Z,100249.00
2022-12-22T10:20:40.056Z,100245.00
2022-12-22T10:23:29.538Z,100233.00
2022-12-22T10:29:05.065Z,100238.00
2022-12-22T10:31:55.131Z,100249.00
2022-12-22T10:34:22.581Z,100253.00
2022-12-22T10:37:04.084Z,100262.00
2022-12-22T10:39:35.646Z,100262.00
2022-12-22T10:42:13.831Z,100259.00
2022-12-22T10:44:49.974Z,100280.00
2022-12-22T10:47:24.723Z,100281.00
2022-12-22T10:56:36.532Z,100273.00
2022-12-22T10:59:07.209Z,100281.00
2022-12-22T11:02:49.613Z,100287.00
2022-12-22T11:05:17.133Z,100283.00
2022-12-22T11:07:50.010Z,100277.00
2022-12-22T11:10:21.435Z,100288.00
2022-12-22T11:13:27.850Z,100294.00
2022-12-22T11:16:20.943Z,100298.00
2022-12-22T11:19:04.056Z,100291.00
2022-12-22T11:21:56.447Z,100300.00
2022-12-22T11:24:45.154Z,100318.00
2022-12-22T11:27:33.454Z,100320.00
2022-12-22T11:30:20.893Z,100321.00
2022-12-22T11:33:49.591Z,100324.00
2022-12-22T11:36:46.884Z,100337.00
2022-12-22T11:40:05.371Z,100338.00
2022-12-22T11:43:11.643Z,100338.00
2022-12-22T11:45:51.865Z,100331.00
2022-12-22T11:48:51.049Z,100324.00
2022-12-22T11:51:50.039Z,100314.00
2022-12-22T11:55:03.013Z,100323.00
2022-12-22T11:58:23.125Z,100338.00
2022-12-22T12:01:25.624Z,100317.00
2022-12-22T12:04:48.434Z,100324.00
2022-12-22T12:07:48.558Z,100323.00
2022-12-22T12:14:57.945Z,100315.00
2022-12-22T12:18:04.820Z,100332.00
2022-12-22T12:21:09.352Z,100341.00
2022-12-22T12:23:57.804Z,100322.00
2022-12-22T12:26:31.496Z,100330.00
2022-12-22T12:29:20.365Z,100326.00
2022-12-22T12:31:59.866Z,100315.00
2022-12-22T12:34:31.800Z,100318.00
2022-12-22T12:37:39.088Z,100319.00
2022-12-22T12:40:29.196Z,100312.00
2022-12-22T12:42:58.978Z,100310.00
2022-12-22T12:45:37.462Z,100314.00
2022-12-22T12:48:26.477Z,100311.00
2022-12-22T12:51:00.337Z,100301.00
2022-12-22T12:53:30.567Z,100308.00
2022-12-22T12:56:11.719Z,100293.00
2022-12-22T12:58:39.391Z,100310.00
2022-12-22T13:01:31.965Z,100306.00
2022-12-22T13:04:06.176Z,100305.00
2022-12-22T13:06:56.008Z,100297.00
2022-12-22T13:09:53.562Z,100307.00
2022-12-22T13:12:41.486Z,100304.00
2022-12-22T13:15:40.074Z,100292.00
2022-12-22T13:18:25.623Z,100300.00
2022-12-22T13:21:51.810Z,100302.00
2022-12-22T13:24:30.605Z,100302.00
2022-12-22T13:27:06.991Z,100306.00
2022-12-22T13:29:42.928Z,100305.00
2022-12-22T13:32:36.075Z,100317.00
2022-12-22T13:35:33.897Z,100315.00
2022-12-22T13:38:02.530Z,100317.00
2022-12-22T13:41:47.975Z,100315.00
2022-12-22T13:44:29.659Z,100310.00
2022-12-22T13:47:07.891Z,100313.00
2022-12-22T13:50:07.319Z,100309.00
2022-12-22T13:52:24.022Z,100308.00
2022-12-22T13:54:51.745Z,100288.00
2022-12-22T13:57:23.215Z,100290.00
2022-12-22T13:59:52.548Z,100290.00
2022-12-22T14:06:44.954Z,100301.00
2022-12-22T14:09:25.812Z,100288.00
2022-12-22T14:12:03.003Z,100299.00
2022-12-22T14:14:38.273Z,100306.00
2022-12-22T14:17:34.977Z,100306.00
2022-12-22T14:20:28.521Z,100291.00
2022-12-22T14:23:18.180Z,100287.00
2022-12-22T14:25:51.057Z,100297.00
2022-12-22T14:28:53.591Z,100279.00
2022-12-22T14:31:21.717Z,100285.00
2022-12-22T14:34:05.740Z,100289.00
2022-12-22T14:36:41.781Z,100282.00
2022-12-22T14:39:11.001Z,100286.00
2022-12-22T14:41:54.129Z,100274.00
2022-12-22T14:44:28.296Z,100277.00
2022-12-22T14:47:16.363Z,100281.00
2022-12-22T14:50:25.054Z,100268.00
2022-12-22T14:52:59.916Z,100263.00
2022-12-22T14:55:38.329Z,100270.00
2022-12-22T14:58:10.220Z,100265.00
2022-12-22T15:00:44.115Z,100252.00
2022-12-22T15:03:38.239Z,100253.00
2022-12-22T15:06:27.446Z,100251.00
2022-12-22T15:09:11.985Z,100257.00
2022-12-22T15:12:04.106Z,100241.00
2022-12-22T15:14:38.876Z,100242.00
2022-12-22T15:17:18.304Z,100241.00
2022-12-22T15:19:48.620Z,100233.00
2022-12-22T15:22:16.128Z,100234.00
2022-12-22T15:24:43.626Z,100239.00
2022-12-22T15:27:10.820Z,100238.00
2022-12-22T15:29:41.094Z,100225.00
2022-12-22T15:32:15.182Z,100229.00
2022-12-22T15:34:45.942Z,100219.00
2022-12-22T15:37:13.583Z,100229.00
2022-12-22T15:39:40.908Z,100210.00
2022-12-22T15:42:08.209Z,100226.00
2022-12-22T15:44:38.960Z,100221.00
2022-12-22T15:48:23.485Z,100213.00
2022-12-22T15:50:52.626Z,100214.00
2022-12-22T15:53:20.977Z,100214.00
2022-12-22T15:56:00.641Z,100197.00
2022-12-22T15:58:36.483Z,100207.00
2022-12-22T16:01:03.775Z,100195.00
2022-12-22T16:03:31.061Z,100190.00
2022-12-22T16:05:58.833Z,100195.00
2022-12-22T16:08:41.017Z,100189.00
2022-12-22T16:11:20.818Z,100170.00
2022-12-22T16:13:50.397Z,100181.00
2022-12-22T16:16:18.359Z,100178.00
2022-12-22T16:18:45.739Z,100190.00
2022-12-22T16:21:22.259Z,100180.00
2022-12-22T16:23:51.309Z,100183.00
2022-12-22T16:26:21.438Z,100177.00
2022-12-22T16:28:50.630Z,100156.00
2022-12-22T16:31:26.527Z,100153.00
2022-12-22T16:33:53.940Z,100156.00
2022-12-22T16:36:21.146Z,100138.00
2022-12-22T16:38:48.555Z,100136.00
2022-12-22T16:41:25.443Z,100135.00
2022-12-22T16:46:41.547Z,100130.00
2022-12-22T16:53:18.547Z,100130.00
2022-12-22T16:55:45.813Z,100118.00
2022-12-22T16:58:14.278Z,100119.00
2022-12-22T17:00:44.783Z,100112.00
2022-12-22T17:03:28.426Z,100106.00
2022-12-22T17:06:01.076Z,100109.00
2022-12-22T17:08:36.193Z,100105.00
2022-12-22T17:11:11.173Z,100113.00
2022-12-22T17:13:39.380Z,100101.00
2022-12-22T17:16:07.101Z,100098.00
2022-12-22T17:18:38.212Z,100095.00
2022-12-22T17:21:06.024Z,100092.00
2022-12-22T17:23:39.590Z,100085.00
2022-12-22T17:26:10.412Z,100066.00
2022-12-22T17:28:39.194Z,100067.00
2022-12-22T17:31:25.307Z,100058.00
2022-12-22T17:33:52.956Z,100066.00
2022-12-22T17:36:33.931Z,100056.00
2022-12-22T17:39:03.241Z,100052.00
2022-12-22T17:41:30.577Z,100048.00
2022-12-22T17:43:58.071Z,100040.00
2022-12-22T17:46:25.759Z,100039.00
2022-12-22T17:48:53.149Z,100034.00
2022-12-22T17:51:29.500Z,100040.00
2022-12-22T17:53:59.145Z,100025.00
2022-12-22T17:56:31.775Z,100029.00
2022-12-22T17:58:59.127Z,100028.00
2022-12-22T18:01:32.467Z,100020.00
2022-12-22T18:04:00.189Z,100022.00
2022-12-22T18:06:34.827Z,100021.00
2022-12-22T18:09:03.166Z,100004.00
2022-12-22T18:11:30.686Z,100010.00
2022-12-22T18:14:00.511Z,100006.00
2022-12-22T18:16:28.027Z,100012.00
2022-12-22T18:18:55.435Z,100006.00
2022-12-22T18:21:25.744Z,100000.00
2022-12-22T18:23:53.199Z,100006.00
2022-12-22T18:26:30.599Z,100003.00
2022-12-22T18:29:01.968Z,99998.00
2022-12-22T18:31:29.243Z,99993.00
2022-12-22T18:33:56.922Z,100003.00
2022-12-22T18:36:33.557Z,99995.00
2022-12-22T18:39:02.634Z,99998.00
2022-12-22T18:41:37.428Z,99995.00
2022-12-22T18:44:04.842Z,99980.00
2022-12-22T18:46:32.417Z,99993.00
2022-12-22T18:49:05.335Z,99996.00
2022-12-22T18:51:32.946Z,99991.00
2022-12-22T18:54:02.188Z,99986.00
2022-12-22T18:56:29.679Z,99986.00
2022-12-22T18:58:57.086Z,99979.00
2022-12-22T19:01:27.384Z,99981.00
2022-12-22T19:03:58.984Z,99971.00
2022-12-22T19:06:27.440Z,99978.00
2022-12-22T19:08:54.663Z,99975.00
2022-12-22T19:11:29.076Z,99972.00
2022-12-22T19:13:56.503Z,99972.00
2022-12-22T19:16:27.126Z,99972.00
2022-12-22T19:18:54.938Z,99968.00
2022-12-22T19:21:22.153Z,99959.00
2022-12-22T19:23:49.726Z,99954.00
2022-12-22T19:26:27.886Z,99964.00
2022-12-22T19:29:03.880Z,99964.00
2022-12-22T19:31:36.231Z,99960.00
2022-12-22T19:34:10.259Z,99964.00
2022-12-22T19:36:40.958Z,99951.00
2022-12-22T19:43:20.300Z,99959.00
2022-12-22T19:45:52.971Z,99951.00
2022-12-22T19:48:24.799Z,99966.00
2022-12-22T19:50:54.158Z,99967.00
2022-12-22T19:53:22.075Z,99973.00
2022-12-22T19:55:56.088Z,99965.00
2022-12-22T19:58:30.855Z,99973.00
2022-12-22T20:00:58.989Z,99970.00
2022-12-22T20:03:26.833Z,99970.00
2022-12-22T20:05:54.282Z,99951.00
2022-12-22T20:08:21.726Z,99961.00
2022-12-22T20:10:58.473Z,99955.00
2022-12-22T20:13:32.992Z,99956.00
2022-12-22T20:16:00.376Z,99957.00
2022-12-22T20:18:30.552Z,99958.00
2022-12-22T20:21:06.628Z,99951.00
2022-12-22T20:23:39.199Z,99962.00
2022-12-22T20:26:15.918Z,99967.00
2022-12-22T20:28:43.208Z,99967.00
2022-12-22T20:31:15.443Z,99953.00
2022-12-22T20:33:42.979Z,99966.00
2022-12-22T20:36:26.493Z,99960.00
2022-12-22T20:38:57.965Z,99953.00
2022-12-22T20:41:28.820Z,99955.00
2022-12-22T20:43:56.183Z,99961.00
2022-12-22T20:46:30.323Z,99944.00
2022-12-22T20:49:04.598Z,99968.00
2022-12-22T20:51:34.189Z,99957.00
2022-12-22T20:54:01.757Z,99963.00
2022-12-22T20:56:33.725Z,99953.00
2022-12-22T20:59:14.531Z,99940.00
2022-12-22T21:01:41.959Z,99953.00
2022-12-22T21:04:09.713Z,99954.00
2022-12-22T21:06:53.080Z,99949.00
2022-12-22T21:09:20.632Z,99957.00
2022-12-22T21:11:48.250Z,99955.00
2022-12-22T21:14:15.986Z,99948.00
2022-12-22T21:16:43.871Z,99934.00
2022-12-22T21:19:18.715Z,99944.00
2022-12-22T21:21:46.794Z,99944.00
2022-12-22T21:24:14.300Z,99957.00
2022-12-22T21:26:47.394Z,99956.00
2022-12-22T21:29:23.633Z,99958.00
2022-12-22T21:31:51.305Z,99958.00
2022-12-22T21:34:18.951Z,99959.00
2022-12-22T21:36:51.787Z,99955.00
2022-12-22T21:39:29.974Z,99951.00
2022-12-22T21:42:00.212Z,99950.00
2022-12-22T21:44:29.400Z,99952.00
2022-12-22T21:46:58.151Z,99956.00
2022-12-22T21:49:32.260Z,99954.00
2022-12-22T21:52:32.614Z,99952.00
2022-12-22T21:54:59.888Z,99945.00
2022-12-22T21:57:28.803Z,99960.00
2022-12-22T21:59:56.115Z,99956.00
2022-12-22T22:02:23.656Z,99959.00
2022-12-22T22:04:54.976Z,99966.00
2022-12-22T22:07:23.243Z,99968.00
2022-12-22T22:09:50.414Z,99967.00
2022-12-22T22:12:32.960Z,99962.00
2022-12-22T22:15:02.120Z,99971.00
2022-12-22T22:17:29.952Z,99958.00
2022-12-22T22:19:58.523Z,99952.00
2022-12-22T22:22:25.855Z,99950.00
2022-12-22T22:24:53.110Z,99963.00
2022-12-22T22:27:20.571Z,99957.00
2022-12-22T22:29:47.937Z,99956.00
2022-12-22T22:32:15.234Z,99960.00
2022-12-22T22:34:42.751Z,99964.00
2022-12-22T22:37:10.180Z,99959.00
2022-12-22T22:39:37.591Z,99973.00
2022-12-22T22:42:05.386Z,99982.00
2022-12-22T22:44:32.625Z,99982.00
2022-12-22T22:47:00.389Z,99967.00
2022-12-22T22:49:28.793Z,99981.00
2022-12-22T22:52:01.402Z,99978.00
2022-12-22T22:54:32.942Z,99971.00
2022-12-22T22:57:00.358Z,99969.00
2022-12-22T22:59:27.985Z,99968.00
2022-12-22T23:01:56.162Z,99969.00
2022-12-22T23:04:23.646Z,99966.00
2022-12-22T23:06:51.133Z,99967.00
2022-12-22T23:09:18.636Z,99968.00
2022-12-22T23:11:45.942Z,99967.00
2022-12-22T23:14:13.203Z,99972.00
2022-12-22T23:16:40.807Z,99965.00
2022-12-22T23:19:08.381Z,99967.00
2022-12-22T23:21:35.744Z,99964.00
2022-12-22T23:24:03.109Z,99968.00
2022-12-22T23:26:31.746Z,99978.00
2022-12-22T23:29:03.272Z,99962.00
2022-12-22T23:35:42.983Z,99981.00
2022-12-22T23:38:10.798Z,99965.00
2022-12-22T23:40:54.169Z,99974.00
2022-12-22T23:43:22.911Z,99968.00
2022-12-22T23:45:52.342Z,99968.00
2022-12-22T23:48:19.637Z,99967.00
2022-12-22T23:50:47.904Z,99975.00
2022-12-22T23:53:16.444Z,99975.00
2022-12-22T23:55:50.621Z,99965.00
2022-12-22T23:58:18.354Z,99968.00
